createdAt,value
2022-11-21T00:00:54.749Z,11.20
2022-11-21T00:03:21.644Z,8.25
2022-11-21T00:05:49.297Z,10.45
2022-11-21T00:08:19.587Z,10.38
2022-11-21T00:10:48.039Z,9.67
2022-11-21T00:13:20.728Z,11.57
2022-11-21T00:15:48.037Z,11.05
2022-11-21T00:18:15.395Z,10.88
2022-11-21T00:20:43.136Z,12.00
2022-11-21T00:23:10.194Z,9.43
2022-11-21T00:25:37.614Z,11.18
2022-11-21T00:28:05.682Z,12.10
2022-11-21T00:30:32.287Z,12.07
2022-11-21T00:33:00.795Z,11.52
2022-11-21T00:35:28.223Z,7.33
2022-11-21T00:37:54.715Z,12.48
2022-11-21T00:40:21.314Z,11.32
2022-11-21T00:42:47.847Z,9.30
2022-11-21T00:45:17.227Z,13.25
2022-11-21T00:47:46.320Z,11.30
2022-11-21T00:50:13.053Z,14.05
2022-11-21T00:52:39.553Z,12.73
2022-11-21T00:55:06.106Z,11.90
2022-11-21T00:57:32.768Z,11.00
2022-11-21T00:59:59.365Z,10.60
2022-11-21T01:02:25.902Z,11.40
2022-11-21T01:04:52.536Z,10.50
2022-11-21T01:07:19.174Z,13.82
2022-11-21T01:09:45.993Z,8.25
2022-11-21T01:12:12.507Z,8.47
2022-11-21T01:14:39.691Z,11.85
2022-11-21T01:17:06.267Z,14.55
2022-11-21T01:19:32.889Z,13.35
2022-11-21T01:21:59.379Z,13.73
2022-11-21T01:24:26.194Z,15.07
2022-11-21T01:26:52.917Z,12.65
2022-11-21T01:29:19.397Z,13.60
2022-11-21T01:31:45.934Z,11.40
2022-11-21T01:34:12.530Z,13.73
2022-11-21T01:36:39.024Z,13.17
2022-11-21T01:39:07.069Z,11.23
2022-11-21T01:41:36.848Z,12.98
2022-11-21T01:44:13.765Z,11.38
2022-11-21T01:46:40.463Z,14.23
2022-11-21T01:49:11.617Z,15.20
2022-11-21T01:51:44.280Z,15.88
2022-11-21T01:54:22.727Z,14.38
2022-11-21T01:56:58.344Z,15.38
2022-11-21T01:59:31.651Z,16.30
2022-11-21T02:02:02.274Z,14.77
2022-11-21T02:04:31.662Z,11.65
2022-11-21T02:07:00.562Z,13.25
2022-11-21T02:09:28.487Z,16.20
2022-11-21T02:12:01.492Z,15.82
2022-11-21T02:14:28.210Z,13.90
2022-11-21T02:16:59.170Z,7.82
2022-11-21T02:19:43.117Z,15.27
2022-11-21T02:22:33.553Z,14.93
2022-11-21T02:25:14.348Z,14.18
2022-11-21T02:27:41.259Z,17.83
2022-11-21T02:30:09.767Z,19.80
2022-11-21T02:32:42.048Z,13.80
2022-11-21T02:35:09.427Z,16.52
2022-11-21T02:37:37.487Z,14.25
2022-11-21T02:40:09.789Z,16.97
2022-11-21T02:42:43.238Z,16.77
2022-11-21T02:45:25.082Z,20.30
2022-11-21T02:47:58.131Z,19.17
2022-11-21T02:50:34.618Z,17.58
2022-11-21T02:53:01.847Z,15.90
2022-11-21T02:55:28.357Z,14.38
2022-11-21T02:57:56.384Z,16.50
2022-11-21T03:00:24.744Z,11.98
2022-11-21T03:02:51.717Z,15.65
2022-11-21T03:05:19.717Z,17.17
2022-11-21T03:07:47.548Z,20.17
2022-11-21T03:10:15.288Z,16.33
2022-11-21T03:12:42.973Z,15.85
2022-11-21T03:15:12.756Z,14.23
2022-11-21T03:17:40.374Z,13.27
2022-11-21T03:20:08.061Z,11.43
2022-11-21T03:22:34.946Z,12.07
2022-11-21T03:25:01.419Z,15.65
2022-11-21T03:27:27.925Z,12.57
2022-11-21T03:29:54.492Z,13.53
2022-11-21T03:32:20.987Z,10.35
2022-11-21T03:34:47.449Z,11.82
2022-11-21T03:37:14.074Z,13.38
2022-11-21T03:39:40.531Z,15.40
2022-11-21T03:42:07.021Z,16.07
2022-11-21T03:44:33.755Z,10.55
2022-11-21T03:47:00.241Z,17.15
2022-11-21T03:49:26.778Z,12.82
2022-11-21T03:51:53.394Z,10.23
2022-11-21T03:54:19.857Z,12.50
2022-11-21T03:56:46.358Z,12.05
2022-11-21T03:59:12.955Z,14.02
2022-11-21T04:01:39.466Z,8.73
2022-11-21T04:04:05.944Z,11.05
2022-11-21T04:06:32.748Z,15.23
2022-11-21T04:08:59.332Z,12.77
2022-11-21T04:11:26.064Z,14.43
2022-11-21T04:13:53.104Z,18.25
2022-11-21T04:16:19.920Z,13.32
2022-11-21T04:18:46.665Z,11.93
2022-11-21T04:21:13.230Z,8.65
2022-11-21T04:23:39.754Z,11.77
2022-11-21T04:26:06.272Z,14.13
2022-11-21T04:28:32.915Z,10.25
2022-11-21T04:31:10.671Z,12.23
2022-11-21T04:33:39.471Z,13.15
2022-11-21T04:36:07.754Z,13.93
2022-11-21T04:38:34.294Z,10.95
2022-11-21T04:41:00.960Z,11.82
2022-11-21T04:43:27.454Z,13.33
2022-11-21T04:45:54.044Z,13.88
2022-11-21T04:48:20.719Z,12.77
2022-11-21T04:50:47.374Z,11.90
2022-11-21T04:53:13.916Z,13.60
2022-11-21T04:55:40.660Z,13.07
2022-11-21T04:58:07.122Z,14.25
2022-11-21T05:00:34.626Z,14.57
2022-11-21T05:03:02.860Z,11.52
2022-11-21T05:05:29.343Z,15.95
2022-11-21T05:07:55.847Z,16.57
2022-11-21T05:10:22.457Z,15.93
2022-11-21T05:12:59.915Z,14.23
2022-11-21T05:15:26.483Z,14.90
2022-11-21T05:17:52.990Z,13.02
2022-11-21T05:20:19.660Z,14.77
2022-11-21T05:22:51.631Z,10.60
2022-11-21T05:25:18.435Z,11.45
2022-11-21T05:27:44.942Z,13.48
2022-11-21T05:30:11.918Z,13.38
2022-11-21T05:32:38.482Z,18.03
2022-11-21T05:35:05.323Z,15.50
2022-11-21T05:37:31.939Z,16.67
2022-11-21T05:39:58.632Z,13.68
2022-11-21T05:42:25.082Z,15.75
2022-11-21T05:44:51.694Z,13.53
2022-11-21T05:47:18.175Z,13.77
2022-11-21T05:49:44.679Z,13.57
2022-11-21T05:52:11.298Z,13.23
2022-11-21T05:54:39.604Z,9.30
2022-11-21T05:57:08.917Z,13.37
2022-11-21T05:59:35.566Z,13.00
2022-11-21T06:02:02.090Z,13.55
2022-11-21T06:04:28.715Z,12.95
2022-11-21T06:06:55.455Z,9.63
2022-11-21T06:09:21.949Z,11.47
2022-11-21T06:11:48.731Z,5.75
2022-11-21T06:14:15.333Z,9.45
2022-11-21T06:16:41.923Z,9.10
2022-11-21T06:19:08.425Z,9.98
2022-11-21T06:21:35.047Z,11.37
2022-11-21T06:24:01.617Z,10.00
2022-11-21T06:26:28.232Z,11.82
2022-11-21T06:28:55.506Z,10.02
2022-11-21T06:31:24.469Z,10.60
2022-11-21T06:33:59.153Z,11.90
2022-11-21T06:36:26.452Z,10.15
2022-11-21T06:38:54.398Z,9.68
2022-11-21T06:41:23.398Z,9.10
2022-11-21T06:43:50.004Z,9.90
2022-11-21T06:46:16.695Z,9.63
2022-11-21T06:48:44.152Z,9.73
2022-11-21T06:51:18.273Z,10.77
2022-11-21T06:53:45.839Z,10.63
2022-11-21T06:56:12.620Z,10.30
2022-11-21T06:58:39.226Z,9.43
2022-11-21T07:01:07.434Z,9.63
2022-11-21T07:03:34.846Z,10.50
2022-11-21T07:06:01.995Z,6.72
2022-11-21T07:08:30.522Z,9.32
2022-11-21T07:11:24.110Z,7.27
2022-11-21T07:13:50.027Z,9.20
2022-11-21T07:16:16.705Z,8.48
2022-11-21T07:18:43.168Z,8.80
2022-11-21T07:21:10.101Z,6.50
2022-11-21T07:23:36.832Z,6.57
2022-11-21T07:26:05.774Z,2.45
2022-11-21T07:28:33.334Z,5.57
2022-11-21T07:31:07.013Z,5.78
2022-11-21T07:33:35.162Z,6.78
2022-11-21T07:36:01.686Z,6.93
2022-11-21T07:38:28.154Z,5.28
2022-11-21T07:40:57.138Z,6.47
2022-11-21T07:43:24.197Z,6.90
2022-11-21T07:45:50.689Z,6.85
2022-11-21T07:48:17.171Z,7.57
2022-11-21T07:50:43.865Z,6.63
2022-11-21T07:53:10.757Z,4.57
2022-11-21T07:55:40.567Z,5.85
2022-11-21T07:58:10.685Z,4.53
2022-11-21T08:00:39.350Z,13.93
2022-11-21T08:03:06.209Z,7.65
2022-11-21T08:05:37.904Z,7.82
2022-11-21T08:08:05.740Z,6.85
2022-11-21T08:10:33.016Z,9.23
2022-11-21T08:12:59.719Z,8.87
2022-11-21T08:15:26.230Z,8.88
2022-11-21T08:17:52.736Z,7.50
2022-11-21T08:20:19.436Z,8.15
2022-11-21T08:22:46.076Z,10.02
2022-11-21T08:25:12.636Z,8.80
2022-11-21T08:27:39.643Z,8.95
2022-11-21T08:30:07.868Z,7.15
2022-11-21T08:32:34.903Z,9.07
2022-11-21T08:35:01.697Z,9.65
2022-11-21T08:37:28.811Z,6.90
2022-11-21T08:39:56.197Z,6.95
2022-11-21T08:42:22.776Z,7.20
2022-11-21T08:44:49.304Z,8.57
2022-11-21T08:47:15.912Z,9.98
2022-11-21T08:49:42.618Z,8.70
2022-11-21T08:52:09.131Z,6.63
2022-11-21T08:54:35.665Z,5.93
2022-11-21T08:57:02.340Z,6.50
2022-11-21T08:59:28.928Z,8.40
2022-11-21T09:01:55.729Z,8.67
2022-11-21T09:04:22.497Z,8.88
2022-11-21T09:06:49.108Z,8.52
2022-11-21T09:09:19.341Z,8.75
2022-11-21T09:11:48.756Z,4.85
2022-11-21T09:14:15.281Z,7.70
2022-11-21T09:16:41.834Z,8.57
2022-11-21T09:19:08.542Z,7.30
2022-11-21T09:21:35.482Z,7.70
2022-11-21T09:24:01.934Z,9.27
2022-11-21T09:26:28.454Z,7.70
2022-11-21T09:28:55.195Z,9.52
2022-11-21T09:31:21.706Z,8.65
2022-11-21T09:33:53.581Z,6.78
2022-11-21T09:36:21.439Z,8.73
2022-11-21T09:38:47.886Z,7.70
2022-11-21T09:41:26.800Z,8.40
2022-11-21T09:44:05.551Z,9.40
2022-11-21T09:46:39.530Z,6.70
2022-11-21T09:49:07.610Z,7.10
2022-11-21T09:51:37.314Z,7.87
2022-11-21T09:54:11.780Z,7.00
2022-11-21T09:56:42.085Z,9.25
2022-11-21T09:59:08.631Z,8.20
2022-11-21T10:01:36.529Z,7.35
2022-11-21T10:04:03.839Z,6.17
2022-11-21T10:06:36.607Z,6.70
2022-11-21T10:09:10.193Z,7.88
2022-11-21T10:12:11.886Z,7.25
2022-11-21T10:14:56.378Z,8.32
2022-11-21T10:17:38.790Z,4.87
2022-11-21T10:20:20.109Z,8.50
2022-11-21T10:23:24.292Z,7.78
2022-11-21T10:26:04.515Z,8.50
2022-11-21T10:28:59.082Z,7.72
2022-11-21T10:31:29.179Z,6.70
2022-11-21T10:33:57.382Z,3.10
2022-11-21T10:36:45.967Z,8.05
2022-11-21T10:39:25.007Z,8.02
2022-11-21T10:41:56.071Z,7.50
2022-11-21T10:44:26.751Z,8.83
2022-11-21T10:47:01.270Z,7.38
2022-11-21T10:49:32.416Z,7.75
2022-11-21T10:52:13.708Z,7.30
2022-11-21T10:55:13.735Z,8.98
2022-11-21T10:57:44.510Z,9.80
2022-11-21T11:00:16.294Z,8.65
2022-11-21T11:02:59.037Z,6.95
2022-11-21T11:05:31.574Z,8.75
2022-11-21T11:08:07.153Z,8.80
2022-11-21T11:10:37.653Z,6.97
2022-11-21T11:13:45.017Z,7.28
2022-11-21T11:16:11.707Z,6.32
2022-11-21T11:18:47.805Z,9.07
2022-11-21T11:21:23.088Z,9.20
2022-11-21T11:23:51.895Z,5.60
2022-11-21T11:26:25.506Z,7.93
2022-11-21T11:28:52.356Z,9.45
2022-11-21T11:31:19.100Z,10.18
2022-11-21T11:33:48.344Z,8.80
2022-11-21T11:36:17.467Z,9.47
2022-11-21T11:38:57.293Z,10.15
2022-11-21T11:41:55.126Z,9.25
2022-11-21T11:44:44.485Z,9.48
2022-11-21T11:47:21.838Z,11.68
2022-11-21T11:49:55.476Z,10.70
2022-11-21T11:52:25.375Z,10.48
2022-11-21T11:54:58.901Z,9.48
2022-11-21T11:57:28.438Z,10.63
2022-11-21T12:00:07.515Z,10.05
2022-11-21T12:02:49.072Z,11.10
2022-11-21T12:05:23.541Z,13.00
2022-11-21T12:08:40.121Z,11.40
2022-11-21T12:11:03.752Z,11.75
2022-11-21T12:13:33.723Z,12.95
2022-11-21T12:16:11.827Z,13.57
2022-11-21T12:18:55.155Z,13.68
2022-11-21T12:21:22.452Z,13.40
2022-11-21T12:23:56.307Z,14.20
2022-11-21T12:26:40.287Z,15.27
2022-11-21T12:29:06.772Z,18.07
2022-11-21T12:31:38.894Z,15.82
2022-11-21T12:34:36.292Z,13.63
2022-11-21T12:37:17.471Z,15.35
2022-11-21T12:39:59.156Z,17.48
2022-11-21T12:42:38.069Z,15.37
2022-11-21T12:45:38.559Z,13.95
2022-11-21T12:48:23.333Z,13.45
2022-11-21T12:51:11.857Z,12.50
2022-11-21T12:54:09.913Z,12.95
2022-11-21T12:57:04.496Z,12.77
2022-11-21T12:59:35.640Z,12.88
2022-11-21T13:02:27.879Z,14.88
2022-11-21T13:04:58.249Z,12.93
2022-11-21T13:07:27.756Z,14.30
2022-11-21T13:09:57.172Z,13.40
2022-11-21T13:12:59.201Z,13.52
2022-11-21T13:15:38.443Z,13.75
2022-11-21T13:18:33.451Z,10.25
2022-11-21T13:21:00.073Z,12.02
2022-11-21T13:23:42.156Z,14.00
2022-11-21T13:26:27.119Z,12.35
2022-11-21T13:29:13.121Z,13.23
2022-11-21T13:31:40.608Z,12.73
2022-11-21T13:34:45.679Z,14.25
2022-11-21T13:37:59.528Z,12.70
2022-11-21T13:40:28.907Z,13.60
2022-11-21T13:43:32.079Z,14.27
2022-11-21T13:45:54.536Z,13.40
2022-11-21T13:48:33.088Z,12.88
2022-11-21T13:51:07.889Z,12.63
2022-11-21T13:53:58.648Z,13.25
2022-11-21T13:57:02.167Z,11.82
2022-11-21T13:59:48.478Z,13.70
2022-11-21T14:02:27.906Z,10.57
2022-11-21T14:05:20.904Z,14.37
2022-11-21T14:07:47.952Z,12.27
2022-11-21T14:10:33.382Z,11.57
2022-11-21T14:13:02.631Z,11.32
2022-11-21T14:15:59.953Z,14.20
2022-11-21T14:18:27.252Z,13.40
2022-11-21T14:20:57.394Z,12.57
2022-11-21T14:23:26.626Z,13.68
2022-11-21T14:26:04.861Z,12.55
2022-11-21T14:28:34.223Z,11.32
2022-11-21T14:31:01.656Z,14.23
2022-11-21T14:33:28.123Z,12.50
2022-11-21T14:36:00.643Z,13.00
2022-11-21T14:38:29.327Z,12.45
2022-11-21T14:41:14.591Z,14.90
2022-11-21T14:43:41.190Z,13.57
2022-11-21T14:46:20.998Z,12.52
2022-11-21T14:48:47.553Z,12.23
2022-11-21T14:51:19.410Z,11.98
2022-11-21T14:53:47.960Z,15.75
2022-11-21T14:56:34.304Z,12.73
2022-11-21T14:59:03.407Z,11.38
2022-11-21T15:01:34.270Z,15.02
2022-11-21T15:04:06.356Z,13.25
2022-11-21T15:06:42.598Z,14.20
2022-11-21T15:10:25.695Z,14.93
2022-11-21T15:12:08.909Z,16.88
2022-11-21T15:14:38.395Z,13.90
2022-11-21T15:17:10.806Z,15.57
2022-11-21T15:19:37.328Z,16.13
2022-11-21T15:22:04.468Z,15.50
2022-11-21T15:24:40.293Z,16.80
2022-11-21T15:27:28.471Z,13.95
2022-11-21T15:30:23.543Z,14.65
2022-11-21T15:33:08.280Z,15.88
2022-11-21T15:35:34.769Z,13.47
2022-11-21T15:38:01.504Z,17.13
2022-11-21T15:40:28.411Z,14.73
2022-11-21T15:42:55.019Z,16.05
2022-11-21T15:45:25.690Z,16.48
2022-11-21T15:47:52.412Z,16.40
2022-11-21T15:50:19.124Z,16.35
2022-11-21T15:52:48.227Z,16.13
2022-11-21T15:55:27.399Z,18.48
2022-11-21T15:57:53.864Z,16.33
2022-11-21T16:00:20.439Z,18.20
2022-11-21T16:02:47.403Z,15.63
2022-11-21T16:05:15.218Z,16.27
2022-11-21T16:07:42.235Z,15.85
2022-11-21T16:10:16.567Z,18.00
2022-11-21T16:12:47.103Z,15.97
2022-11-21T16:15:14.031Z,16.27
2022-11-21T16:17:40.474Z,16.50
2022-11-21T16:20:07.582Z,13.93
2022-11-21T16:22:34.142Z,14.55
2022-11-21T16:25:00.646Z,14.83
2022-11-21T16:27:27.192Z,16.40
2022-11-21T16:29:53.787Z,15.95
2022-11-21T16:32:20.261Z,13.98
2022-11-21T16:34:47.080Z,14.35
2022-11-21T16:37:13.787Z,14.73
2022-11-21T16:39:40.296Z,15.95
2022-11-21T16:42:10.147Z,16.02
2022-11-21T16:44:36.737Z,17.08
2022-11-21T16:47:08.038Z,16.27
2022-11-21T16:49:35.561Z,16.43
2022-11-21T16:52:02.191Z,15.75
2022-11-21T16:54:28.681Z,16.40
2022-11-21T16:56:55.287Z,14.90
2022-11-21T16:59:21.839Z,16.48
2022-11-21T17:01:48.460Z,16.57
2022-11-21T17:04:17.471Z,12.65
2022-11-21T17:06:55.467Z,16.83
2022-11-21T17:09:22.012Z,15.75
2022-11-21T17:11:48.783Z,16.55
2022-11-21T17:14:15.385Z,16.70
2022-11-21T17:16:41.929Z,13.98
2022-11-21T17:19:11.713Z,15.23
2022-11-21T17:21:38.827Z,16.48
2022-11-21T17:24:05.483Z,14.70
2022-11-21T17:26:35.031Z,16.40
2022-11-21T17:29:01.967Z,16.58
2022-11-21T17:31:28.563Z,14.80
2022-11-21T17:33:59.448Z,16.25
2022-11-21T17:36:27.511Z,16.35
2022-11-21T17:38:54.638Z,14.80
2022-11-21T17:41:23.212Z,14.25
2022-11-21T17:43:54.308Z,14.85
2022-11-21T17:46:20.877Z,14.05
2022-11-21T17:48:54.313Z,13.70
2022-11-21T17:51:24.372Z,8.53
2022-11-21T17:53:51.487Z,14.23
2022-11-21T17:56:23.822Z,16.40
2022-11-21T17:58:51.218Z,11.77
2022-11-21T18:01:19.218Z,16.10
2022-11-21T18:04:01.078Z,13.20
2022-11-21T18:06:34.010Z,14.02
2022-11-21T18:09:01.123Z,14.25
2022-11-21T18:11:33.196Z,13.00
2022-11-21T18:14:05.553Z,13.60
2022-11-21T18:16:33.268Z,13.63
2022-11-21T18:19:00.017Z,14.32
2022-11-21T18:21:29.868Z,13.13
2022-11-21T18:23:57.817Z,13.13
2022-11-21T18:26:29.587Z,11.65
2022-11-21T18:29:20.718Z,12.47
2022-11-21T18:31:44.671Z,12.32
2022-11-21T18:34:14.302Z,10.25
2022-11-21T18:36:40.915Z,12.35
2022-11-21T18:39:13.663Z,13.30
2022-11-21T18:41:41.687Z,12.57
2022-11-21T18:44:08.319Z,14.27
2022-11-21T18:46:36.775Z,12.38
2022-11-21T18:49:06.375Z,12.68
2022-11-21T18:51:35.217Z,13.52
2022-11-21T18:54:04.577Z,13.33
2022-11-21T18:56:31.045Z,12.80
2022-11-21T18:58:59.118Z,12.63
2022-11-21T19:01:29.124Z,13.15
2022-11-21T19:03:56.362Z,11.88
2022-11-21T19:06:24.338Z,12.50
2022-11-21T19:08:53.031Z,14.38
2022-11-21T19:11:21.407Z,12.40
2022-11-21T19:13:48.673Z,13.07
2022-11-21T19:16:18.312Z,12.93
2022-11-21T19:18:59.926Z,14.00
2022-11-21T19:21:36.199Z,13.15
2022-11-21T19:24:02.830Z,13.07
2022-11-21T19:26:31.245Z,11.80
2022-11-21T19:28:59.404Z,13.60
2022-11-21T19:31:26.023Z,12.53
2022-11-21T19:33:52.548Z,12.95
2022-11-21T19:36:21.311Z,9.85
2022-11-21T19:38:50.971Z,11.65
2022-11-21T19:41:23.151Z,9.10
2022-11-21T19:43:53.864Z,11.30
2022-11-21T19:46:35.376Z,7.57
2022-11-21T19:49:02.298Z,9.90
2022-11-21T19:51:32.311Z,11.90
2022-11-21T19:53:59.195Z,15.20
2022-11-21T19:56:26.280Z,11.57
2022-11-21T19:58:53.576Z,12.77
2022-11-21T20:01:28.523Z,14.85
2022-11-21T20:03:57.610Z,9.85
2022-11-21T20:06:33.028Z,10.70
2022-11-21T20:09:09.386Z,13.67
2022-11-21T20:11:36.565Z,12.95
2022-11-21T20:14:03.132Z,14.05
2022-11-21T20:16:31.174Z,13.85
2022-11-21T20:19:00.435Z,12.45
2022-11-21T20:21:27.723Z,13.53
2022-11-21T20:23:54.437Z,14.25
2022-11-21T20:26:22.269Z,7.90
2022-11-21T20:28:49.723Z,11.60
2022-11-21T20:31:18.749Z,13.18
2022-11-21T20:33:57.388Z,17.33
2022-11-21T20:36:25.645Z,14.70
2022-11-21T20:38:54.333Z,14.93
2022-11-21T20:41:22.958Z,14.18
2022-11-21T20:44:41.644Z,11.05
2022-11-21T20:46:40.444Z,15.03
2022-11-21T20:49:07.027Z,12.43
2022-11-21T20:54:20.570Z,18.35
2022-11-21T20:56:47.159Z,15.82
2022-11-21T20:59:13.721Z,15.57
2022-11-21T21:01:40.577Z,15.68
2022-11-21T21:04:07.162Z,11.93
2022-11-21T21:06:33.624Z,15.57
2022-11-21T21:09:00.212Z,11.30
2022-11-21T21:14:15.487Z,13.65
2022-11-21T21:16:43.404Z,12.52
2022-11-21T21:19:09.927Z,16.67
2022-11-21T21:21:36.549Z,15.48
2022-11-21T21:24:07.881Z,10.50
2022-11-21T21:26:41.735Z,14.23
2022-11-21T21:29:10.179Z,10.65
2022-11-21T21:31:36.659Z,10.55
2022-11-21T21:34:03.189Z,12.68
2022-11-21T21:36:30.592Z,15.23
2022-11-21T21:38:58.714Z,15.75
2022-11-21T21:41:28.025Z,15.30
2022-11-21T21:43:55.958Z,15.15
2022-11-21T21:46:24.501Z,16.45
2022-11-21T21:48:55.620Z,13.17
2022-11-21T21:51:27.020Z,12.32
2022-11-21T21:53:54.966Z,16.52
2022-11-21T21:56:23.161Z,10.90
2022-11-21T21:58:50.796Z,14.88
2022-11-21T22:01:26.382Z,14.50
2022-11-21T22:03:55.550Z,12.32
2022-11-21T22:06:22.540Z,13.88
2022-11-21T22:08:49.783Z,14.63
2022-11-21T22:11:19.615Z,16.17
2022-11-21T22:13:50.964Z,12.03
2022-11-21T22:16:17.675Z,8.25
2022-11-21T22:18:44.254Z,13.60
2022-11-21T22:21:18.453Z,14.52
2022-11-21T22:24:09.699Z,15.52
2022-11-21T22:26:32.792Z,9.03
2022-11-21T22:28:59.377Z,12.13
2022-11-21T22:31:25.892Z,12.40
2022-11-21T22:33:52.623Z,10.52
2022-11-21T22:36:19.395Z,13.70
2022-11-21T22:38:45.931Z,11.00
2022-11-21T22:41:16.402Z,11.32
2022-11-21T22:43:43.661Z,12.90
2022-11-21T22:46:13.337Z,12.20
2022-11-21T22:48:40.541Z,11.25
2022-11-21T22:51:07.590Z,12.67
2022-11-21T22:53:39.997Z,10.27
2022-11-21T22:56:09.768Z,13.70
2022-11-21T22:58:38.831Z,10.90
2022-11-21T23:01:13.365Z,7.38
2022-11-21T23:03:41.084Z,8.03
2022-11-21T23:06:23.916Z,9.73
2022-11-21T23:08:52.275Z,10.75
2022-11-21T23:11:21.396Z,11.80
2022-11-21T23:13:48.339Z,10.70
2022-11-21T23:16:16.389Z,4.23
2022-11-21T23:18:44.787Z,11.80
2022-11-21T23:21:12.705Z,9.50
2022-11-21T23:23:39.920Z,8.63
2022-11-21T23:26:07.162Z,10.60
2022-11-21T23:28:34.129Z,8.50
2022-11-21T23:31:00.963Z,8.35
2022-11-21T23:33:27.772Z,8.95
2022-11-21T23:35:54.447Z,8.35
2022-11-21T23:38:21.229Z,9.50
2022-11-21T23:40:48.999Z,10.43
2022-11-21T23:43:16.841Z,8.57
2022-11-21T23:45:43.701Z,8.60
2022-11-21T23:48:10.321Z,9.43
2022-11-21T23:50:36.951Z,7.70
2022-11-21T23:53:03.537Z,5.40
2022-11-21T23:55:30.101Z,8.02
2022-11-21T23:57:56.659Z,6.63
